sensor_id;sensor_type;location;lat;lon;timestamp;P1;durP1;ratioP1;P2;durP2;ratioP2
43070;SDS011;36278;47.952;21.714;2023-01-16T00:01:23;29.80;;;19.80;;
43070;SDS011;36278;47.952;21.714;2023-01-16T00:03:50;30.57;;;20.67;;
43070;SDS011;36278;47.952;21.714;2023-01-16T00:06:16;29.47;;;20.27;;
43070;SDS011;36278;47.952;21.714;2023-01-16T00:08:42;30.77;;;21.20;;
43070;SDS011;36278;47.952;21.714;2023-01-16T00:11:08;31.30;;;20.20;;
43070;SDS011;36278;47.952;21.714;2023-01-16T00:13:35;30.37;;;21.17;;
43070;SDS011;36278;47.952;21.714;2023-01-16T00:16:00;31.77;;;20.90;;
43070;SDS011;36278;47.952;21.714;2023-01-16T00:18:26;30.97;;;20.80;;
43070;SDS011;36278;47.952;21.714;2023-01-16T00:20:51;27.43;;;19.73;;
43070;SDS011;36278;47.952;21.714;2023-01-16T00:23:17;29.60;;;19.70;;
43070;SDS011;36278;47.952;21.714;2023-01-16T00:25:43;29.90;;;21.03;;
43070;SDS011;36278;47.952;21.714;2023-01-16T00:28:09;27.93;;;20.20;;
43070;SDS011;36278;47.952;21.714;2023-01-16T00:30:38;32.17;;;20.87;;
43070;SDS011;36278;47.952;21.714;2023-01-16T00:33:04;28.80;;;19.93;;
43070;SDS011;36278;47.952;21.714;2023-01-16T00:35:30;28.97;;;19.60;;
43070;SDS011;36278;47.952;21.714;2023-01-16T00:37:56;30.80;;;19.90;;
43070;SDS011;36278;47.952;21.714;2023-01-16T00:40:22;29.73;;;20.80;;
43070;SDS011;36278;47.952;21.714;2023-01-16T00:42:48;29.77;;;20.50;;
43070;SDS011;36278;47.952;21.714;2023-01-16T00:45:14;30.97;;;20.50;;
43070;SDS011;36278;47.952;21.714;2023-01-16T00:47:39;27.63;;;20.10;;
43070;SDS011;36278;47.952;21.714;2023-01-16T00:50:05;29.17;;;20.77;;
43070;SDS011;36278;47.952;21.714;2023-01-16T00:52:31;32.13;;;20.37;;
43070;SDS011;36278;47.952;21.714;2023-01-16T00:54:57;31.50;;;20.57;;
43070;SDS011;36278;47.952;21.714;2023-01-16T00:57:22;27.20;;;20.03;;
43070;SDS011;36278;47.952;21.714;2023-01-16T00:59:47;36.67;;;21.33;;
43070;SDS011;36278;47.952;21.714;2023-01-16T01:02:13;29.13;;;20.33;;
43070;SDS011;36278;47.952;21.714;2023-01-16T01:04:39;28.70;;;20.53;;
43070;SDS011;36278;47.952;21.714;2023-01-16T01:07:04;30.23;;;20.10;;
43070;SDS011;36278;47.952;21.714;2023-01-16T01:09:30;28.47;;;19.90;;
43070;SDS011;36278;47.952;21.714;2023-01-16T01:11:56;29.97;;;19.93;;
43070;SDS011;36278;47.952;21.714;2023-01-16T01:14:23;30.20;;;20.97;;
43070;SDS011;36278;47.952;21.714;2023-01-16T01:16:49;32.00;;;21.73;;
43070;SDS011;36278;47.952;21.714;2023-01-16T01:19:14;30.27;;;20.63;;
43070;SDS011;36278;47.952;21.714;2023-01-16T01:21:40;29.47;;;20.27;;
43070;SDS011;36278;47.952;21.714;2023-01-16T01:24:06;28.80;;;21.00;;
43070;SDS011;36278;47.952;21.714;2023-01-16T01:26:31;29.20;;;20.43;;
43070;SDS011;36278;47.952;21.714;2023-01-16T01:28:57;28.00;;;19.97;;
43070;SDS011;36278;47.952;21.714;2023-01-16T01:31:23;32.57;;;21.53;;
43070;SDS011;36278;47.952;21.714;2023-01-16T01:33:48;29.93;;;20.47;;
43070;SDS011;36278;47.952;21.714;2023-01-16T01:36:14;29.23;;;21.30;;
43070;SDS011;36278;47.952;21.714;2023-01-16T01:38:39;29.43;;;20.53;;
43070;SDS011;36278;47.952;21.714;2023-01-16T01:41:05;31.00;;;20.67;;
43070;SDS011;36278;47.952;21.714;2023-01-16T01:46:16;29.20;;;20.57;;
43070;SDS011;36278;47.952;21.714;2023-01-16T01:48:50;30.97;;;20.37;;
43070;SDS011;36278;47.952;21.714;2023-01-16T01:54:04;31.03;;;21.40;;
43070;SDS011;36278;47.952;21.714;2023-01-16T01:56:54;31.65;;;21.25;;
43070;SDS011;36278;47.952;21.714;2023-01-16T01:59:32;29.60;;;20.10;;
43070;SDS011;36278;47.952;21.714;2023-01-16T02:02:02;29.33;;;19.70;;
43070;SDS011;36278;47.952;21.714;2023-01-16T02:04:32;30.47;;;19.93;;
43070;SDS011;36278;47.952;21.714;2023-01-16T02:07:01;29.13;;;19.70;;
43070;SDS011;36278;47.952;21.714;2023-01-16T02:09:30;30.43;;;21.53;;
43070;SDS011;36278;47.952;21.714;2023-01-16T02:11:57;31.20;;;20.43;;
43070;SDS011;36278;47.952;21.714;2023-01-16T02:14:27;30.27;;;21.40;;
43070;SDS011;36278;47.952;21.714;2023-01-16T02:17:00;30.40;;;20.50;;
43070;SDS011;36278;47.952;21.714;2023-01-16T02:45:07;29.00;;;19.93;;
43070;SDS011;36278;47.952;21.714;2023-01-16T02:50:10;26.43;;;20.27;;
43070;SDS011;36278;47.952;21.714;2023-01-16T02:52:44;29.20;;;19.60;;
43070;SDS011;36278;47.952;21.714;2023-01-16T02:55:12;27.67;;;19.57;;
43070;SDS011;36278;47.952;21.714;2023-01-16T02:58:02;29.57;;;20.93;;
43070;SDS011;36278;47.952;21.714;2023-01-16T03:00:30;31.27;;;20.83;;
43070;SDS011;36278;47.952;21.714;2023-01-16T03:02:56;29.57;;;19.90;;
43070;SDS011;36278;47.952;21.714;2023-01-16T03:05:22;32.00;;;20.33;;
43070;SDS011;36278;47.952;21.714;2023-01-16T03:07:56;29.33;;;20.20;;
43070;SDS011;36278;47.952;21.714;2023-01-16T03:18:38;28.17;;;19.80;;
43070;SDS011;36278;47.952;21.714;2023-01-16T03:21:25;29.23;;;19.83;;
43070;SDS011;36278;47.952;21.714;2023-01-16T03:24:07;28.77;;;19.60;;
43070;SDS011;36278;47.952;21.714;2023-01-16T03:26:45;26.07;;;19.30;;
43070;SDS011;36278;47.952;21.714;2023-01-16T03:29:56;27.90;;;18.90;;
43070;SDS011;36278;47.952;21.714;2023-01-16T03:32:06;28.33;;;19.27;;
43070;SDS011;36278;47.952;21.714;2023-01-16T03:39:42;31.85;;;20.75;;
43070;SDS011;36278;47.952;21.714;2023-01-16T03:42:15;27.13;;;18.90;;
43070;SDS011;36278;47.952;21.714;2023-01-16T03:45:00;29.70;;;19.40;;
43070;SDS011;36278;47.952;21.714;2023-01-16T03:47:34;33.43;;;20.27;;
43070;SDS011;36278;47.952;21.714;2023-01-16T03:50:05;28.03;;;19.30;;
43070;SDS011;36278;47.952;21.714;2023-01-16T03:52:44;27.47;;;18.50;;
43070;SDS011;36278;47.952;21.714;2023-01-16T03:57:55;29.07;;;19.77;;
43070;SDS011;36278;47.952;21.714;2023-01-16T04:00:28;27.13;;;18.43;;
43070;SDS011;36278;47.952;21.714;2023-01-16T04:03:05;27.43;;;19.53;;
43070;SDS011;36278;47.952;21.714;2023-01-16T04:08:37;30.67;;;20.07;;
43070;SDS011;36278;47.952;21.714;2023-01-16T04:11:06;29.73;;;19.30;;
43070;SDS011;36278;47.952;21.714;2023-01-16T04:13:34;30.30;;;19.43;;
43070;SDS011;36278;47.952;21.714;2023-01-16T04:16:03;29.47;;;19.77;;
43070;SDS011;36278;47.952;21.714;2023-01-16T04:18:32;29.80;;;20.20;;
43070;SDS011;36278;47.952;21.714;2023-01-16T04:21:00;28.50;;;19.90;;
43070;SDS011;36278;47.952;21.714;2023-01-16T04:23:29;28.93;;;20.40;;
43070;SDS011;36278;47.952;21.714;2023-01-16T04:25:54;30.10;;;20.87;;
43070;SDS011;36278;47.952;21.714;2023-01-16T04:28:20;28.43;;;19.43;;
43070;SDS011;36278;47.952;21.714;2023-01-16T04:30:45;33.17;;;19.70;;
43070;SDS011;36278;47.952;21.714;2023-01-16T04:33:11;32.40;;;20.80;;
43070;SDS011;36278;47.952;21.714;2023-01-16T04:35:36;32.87;;;21.03;;
43070;SDS011;36278;47.952;21.714;2023-01-16T04:38:02;29.07;;;20.47;;
43070;SDS011;36278;47.952;21.714;2023-01-16T04:40:28;30.67;;;22.13;;
43070;SDS011;36278;47.952;21.714;2023-01-16T04:42:53;33.27;;;21.47;;
43070;SDS011;36278;47.952;21.714;2023-01-16T04:45:22;27.27;;;20.50;;
43070;SDS011;36278;47.952;21.714;2023-01-16T04:47:48;31.53;;;21.77;;
43070;SDS011;36278;47.952;21.714;2023-01-16T04:50:15;34.80;;;21.00;;
43070;SDS011;36278;47.952;21.714;2023-01-16T04:52:41;35.60;;;22.67;;
43070;SDS011;36278;47.952;21.714;2023-01-16T04:55:07;34.60;;;23.60;;
43070;SDS011;36278;47.952;21.714;2023-01-16T04:57:34;34.70;;;21.97;;
43070;SDS011;36278;47.952;21.714;2023-01-16T05:00:00;32.97;;;21.00;;
43070;SDS011;36278;47.952;21.714;2023-01-16T05:02:26;32.00;;;21.30;;
43070;SDS011;36278;47.952;21.714;2023-01-16T05:04:51;33.60;;;22.87;;
43070;SDS011;36278;47.952;21.714;2023-01-16T05:07:17;30.93;;;21.00;;
43070;SDS011;36278;47.952;21.714;2023-01-16T05:09:42;31.97;;;21.73;;
43070;SDS011;36278;47.952;21.714;2023-01-16T05:12:08;30.73;;;21.07;;
43070;SDS011;36278;47.952;21.714;2023-01-16T05:14:33;30.07;;;21.50;;
43070;SDS011;36278;47.952;21.714;2023-01-16T05:16:59;32.23;;;22.03;;
43070;SDS011;36278;47.952;21.714;2023-01-16T05:19:24;30.47;;;20.67;;
43070;SDS011;36278;47.952;21.714;2023-01-16T05:21:49;31.97;;;21.93;;
43070;SDS011;36278;47.952;21.714;2023-01-16T05:24:15;31.00;;;20.03;;
43070;SDS011;36278;47.952;21.714;2023-01-16T05:26:40;30.50;;;20.27;;
43070;SDS011;36278;47.952;21.714;2023-01-16T05:29:06;33.33;;;20.63;;
43070;SDS011;36278;47.952;21.714;2023-01-16T05:31:31;31.07;;;21.10;;
43070;SDS011;36278;47.952;21.714;2023-01-16T05:33:57;33.20;;;22.20;;
43070;SDS011;36278;47.952;21.714;2023-01-16T05:36:22;28.77;;;20.53;;
43070;SDS011;36278;47.952;21.714;2023-01-16T05:38:48;30.83;;;20.90;;
43070;SDS011;36278;47.952;21.714;2023-01-16T05:41:15;31.13;;;20.97;;
43070;SDS011;36278;47.952;21.714;2023-01-16T05:43:41;30.20;;;21.10;;
43070;SDS011;36278;47.952;21.714;2023-01-16T05:46:07;32.93;;;20.97;;
43070;SDS011;36278;47.952;21.714;2023-01-16T05:48:33;32.90;;;20.43;;
43070;SDS011;36278;47.952;21.714;2023-01-16T05:51:01;30.00;;;20.43;;
43070;SDS011;36278;47.952;21.714;2023-01-16T05:53:27;31.13;;;20.80;;
43070;SDS011;36278;47.952;21.714;2023-01-16T05:55:54;28.53;;;19.27;;
43070;SDS011;36278;47.952;21.714;2023-01-16T05:58:19;30.43;;;19.20;;
43070;SDS011;36278;47.952;21.714;2023-01-16T06:00:45;29.50;;;19.70;;
43070;SDS011;36278;47.952;21.714;2023-01-16T06:03:10;30.30;;;20.40;;
43070;SDS011;36278;47.952;21.714;2023-01-16T06:05:36;29.50;;;19.23;;
43070;SDS011;36278;47.952;21.714;2023-01-16T06:08:02;26.67;;;18.87;;
43070;SDS011;36278;47.952;21.714;2023-01-16T06:10:29;28.40;;;19.50;;
43070;SDS011;36278;47.952;21.714;2023-01-16T06:12:55;29.63;;;20.23;;
43070;SDS011;36278;47.952;21.714;2023-01-16T06:15:21;28.67;;;18.90;;
43070;SDS011;36278;47.952;21.714;2023-01-16T06:17:46;28.77;;;19.47;;
43070;SDS011;36278;47.952;21.714;2023-01-16T06:20:12;32.27;;;19.93;;
43070;SDS011;36278;47.952;21.714;2023-01-16T06:22:38;26.57;;;19.33;;
43070;SDS011;36278;47.952;21.714;2023-01-16T06:25:03;28.80;;;19.43;;
43070;SDS011;36278;47.952;21.714;2023-01-16T06:27:30;30.57;;;20.43;;
43070;SDS011;36278;47.952;21.714;2023-01-16T06:29:57;33.30;;;20.77;;
43070;SDS011;36278;47.952;21.714;2023-01-16T06:32:22;27.43;;;19.27;;
43070;SDS011;36278;47.952;21.714;2023-01-16T06:34:48;28.63;;;20.23;;
43070;SDS011;36278;47.952;21.714;2023-01-16T06:37:13;28.50;;;20.07;;
43070;SDS011;36278;47.952;21.714;2023-01-16T06:39:39;28.40;;;19.53;;
43070;SDS011;36278;47.952;21.714;2023-01-16T06:42:04;63.13;;;48.43;;
43070;SDS011;36278;47.952;21.714;2023-01-16T06:44:32;28.77;;;20.10;;
43070;SDS011;36278;47.952;21.714;2023-01-16T06:46:58;28.83;;;19.97;;
43070;SDS011;36278;47.952;21.714;2023-01-16T06:49:24;28.83;;;20.73;;
43070;SDS011;36278;47.952;21.714;2023-01-16T06:51:50;29.43;;;20.00;;
43070;SDS011;36278;47.952;21.714;2023-01-16T06:54:15;30.40;;;20.87;;
43070;SDS011;36278;47.952;21.714;2023-01-16T06:56:41;29.60;;;20.47;;
43070;SDS011;36278;47.952;21.714;2023-01-16T06:59:06;29.33;;;19.67;;
43070;SDS011;36278;47.952;21.714;2023-01-16T07:01:32;27.00;;;19.57;;
43070;SDS011;36278;47.952;21.714;2023-01-16T07:03:58;37.07;;;21.70;;
43070;SDS011;36278;47.952;21.714;2023-01-16T07:06:23;30.13;;;19.47;;
43070;SDS011;36278;47.952;21.714;2023-01-16T07:08:48;27.80;;;20.20;;
43070;SDS011;36278;47.952;21.714;2023-01-16T07:11:15;30.80;;;20.50;;
43070;SDS011;36278;47.952;21.714;2023-01-16T07:13:42;33.23;;;21.60;;
43070;SDS011;36278;47.952;21.714;2023-01-16T07:16:08;28.47;;;20.83;;
43070;SDS011;36278;47.952;21.714;2023-01-16T07:18:57;30.40;;;21.33;;
43070;SDS011;36278;47.952;21.714;2023-01-16T07:21:42;34.73;;;21.97;;
43070;SDS011;36278;47.952;21.714;2023-01-16T07:24:29;32.27;;;22.10;;
43070;SDS011;36278;47.952;21.714;2023-01-16T07:26:59;31.83;;;22.10;;
43070;SDS011;36278;47.952;21.714;2023-01-16T07:29:28;33.57;;;21.10;;
43070;SDS011;36278;47.952;21.714;2023-01-16T07:31:55;31.07;;;21.57;;
43070;SDS011;36278;47.952;21.714;2023-01-16T07:34:22;32.43;;;21.60;;
43070;SDS011;36278;47.952;21.714;2023-01-16T07:36:48;32.93;;;21.90;;
43070;SDS011;36278;47.952;21.714;2023-01-16T07:39:13;38.90;;;24.93;;
43070;SDS011;36278;47.952;21.714;2023-01-16T07:41:39;35.43;;;21.63;;
43070;SDS011;36278;47.952;21.714;2023-01-16T07:44:04;31.73;;;21.83;;
43070;SDS011;36278;47.952;21.714;2023-01-16T07:46:31;37.60;;;23.67;;
43070;SDS011;36278;47.952;21.714;2023-01-16T07:48:56;37.43;;;23.90;;
43070;SDS011;36278;47.952;21.714;2023-01-16T07:51:22;36.43;;;24.17;;
43070;SDS011;36278;47.952;21.714;2023-01-16T07:53:48;35.57;;;25.80;;
43070;SDS011;36278;47.952;21.714;2023-01-16T07:56:14;41.27;;;27.93;;
43070;SDS011;36278;47.952;21.714;2023-01-16T07:58:39;44.00;;;31.17;;
43070;SDS011;36278;47.952;21.714;2023-01-16T08:01:06;48.20;;;30.03;;
43070;SDS011;36278;47.952;21.714;2023-01-16T08:03:32;44.87;;;30.67;;
43070;SDS011;36278;47.952;21.714;2023-01-16T08:05:58;42.73;;;28.63;;
43070;SDS011;36278;47.952;21.714;2023-01-16T08:08:24;40.10;;;26.67;;
43070;SDS011;36278;47.952;21.714;2023-01-16T08:10:54;37.63;;;25.10;;
43070;SDS011;36278;47.952;21.714;2023-01-16T08:13:24;34.35;;;24.42;;
43070;SDS011;36278;47.952;21.714;2023-01-16T08:15:51;34.23;;;24.10;;
43070;SDS011;36278;47.952;21.714;2023-01-16T08:18:17;35.13;;;24.33;;
43070;SDS011;36278;47.952;21.714;2023-01-16T08:20:44;37.20;;;24.23;;
43070;SDS011;36278;47.952;21.714;2023-01-16T08:23:10;36.87;;;24.33;;
43070;SDS011;36278;47.952;21.714;2023-01-16T08:25:37;40.50;;;24.07;;
43070;SDS011;36278;47.952;21.714;2023-01-16T08:28:02;40.37;;;26.83;;
43070;SDS011;36278;47.952;21.714;2023-01-16T08:30:29;37.63;;;26.30;;
43070;SDS011;36278;47.952;21.714;2023-01-16T08:33:00;42.80;;;28.93;;
43070;SDS011;36278;47.952;21.714;2023-01-16T08:35:27;41.17;;;28.58;;
43070;SDS011;36278;47.952;21.714;2023-01-16T08:37:53;42.47;;;29.60;;
43070;SDS011;36278;47.952;21.714;2023-01-16T08:40:18;43.67;;;31.60;;
43070;SDS011;36278;47.952;21.714;2023-01-16T08:42:44;51.30;;;34.27;;
43070;SDS011;36278;47.952;21.714;2023-01-16T08:45:28;42.83;;;28.60;;
43070;SDS011;36278;47.952;21.714;2023-01-16T08:48:14;40.93;;;29.27;;
43070;SDS011;36278;47.952;21.714;2023-01-16T08:51:02;34.67;;;23.27;;
43070;SDS011;36278;47.952;21.714;2023-01-16T08:53:47;32.20;;;22.43;;
43070;SDS011;36278;47.952;21.714;2023-01-16T08:56:13;28.90;;;20.67;;
43070;SDS011;36278;47.952;21.714;2023-01-16T08:58:38;30.53;;;19.33;;
43070;SDS011;36278;47.952;21.714;2023-01-16T09:01:04;26.17;;;18.77;;
43070;SDS011;36278;47.952;21.714;2023-01-16T09:03:30;28.20;;;19.07;;
43070;SDS011;36278;47.952;21.714;2023-01-16T09:05:55;27.43;;;18.67;;
43070;SDS011;36278;47.952;21.714;2023-01-16T09:08:22;31.23;;;20.63;;
43070;SDS011;36278;47.952;21.714;2023-01-16T09:10:47;29.03;;;19.60;;
43070;SDS011;36278;47.952;21.714;2023-01-16T09:13:38;27.53;;;18.90;;
43070;SDS011;36278;47.952;21.714;2023-01-16T09:16:16;30.43;;;19.30;;
43070;SDS011;36278;47.952;21.714;2023-01-16T09:18:46;26.70;;;18.83;;
43070;SDS011;36278;47.952;21.714;2023-01-16T09:21:13;26.87;;;19.80;;
43070;SDS011;36278;47.952;21.714;2023-01-16T09:23:39;28.67;;;19.77;;
43070;SDS011;36278;47.952;21.714;2023-01-16T09:26:04;30.93;;;20.77;;
43070;SDS011;36278;47.952;21.714;2023-01-16T09:28:30;26.50;;;19.37;;
43070;SDS011;36278;47.952;21.714;2023-01-16T09:30:55;27.33;;;19.40;;
43070;SDS011;36278;47.952;21.714;2023-01-16T09:33:21;24.47;;;17.70;;
43070;SDS011;36278;47.952;21.714;2023-01-16T09:35:46;24.37;;;16.93;;
43070;SDS011;36278;47.952;21.714;2023-01-16T09:38:12;23.47;;;17.00;;
43070;SDS011;36278;47.952;21.714;2023-01-16T09:40:38;24.50;;;17.73;;
43070;SDS011;36278;47.952;21.714;2023-01-16T09:46:04;21.77;;;16.37;;
43070;SDS011;36278;47.952;21.714;2023-01-16T09:48:39;22.70;;;15.77;;
43070;SDS011;36278;47.952;21.714;2023-01-16T09:51:22;24.13;;;15.97;;
43070;SDS011;36278;47.952;21.714;2023-01-16T09:56:41;25.17;;;17.70;;
43070;SDS011;36278;47.952;21.714;2023-01-16T09:59:40;26.53;;;18.50;;
43070;SDS011;36278;47.952;21.714;2023-01-16T10:02:39;26.57;;;19.13;;
43070;SDS011;36278;47.952;21.714;2023-01-16T10:04:59;27.17;;;18.90;;
43070;SDS011;36278;47.952;21.714;2023-01-16T10:15:40;33.03;;;22.50;;
43070;SDS011;36278;47.952;21.714;2023-01-16T10:23:52;32.63;;;21.73;;
43070;SDS011;36278;47.952;21.714;2023-01-16T10:26:47;31.87;;;22.40;;
43070;SDS011;36278;47.952;21.714;2023-01-16T10:37:19;27.20;;;18.60;;
43070;SDS011;36278;47.952;21.714;2023-01-16T10:39:46;27.37;;;18.97;;
43070;SDS011;36278;47.952;21.714;2023-01-16T10:42:16;24.10;;;16.00;;
43070;SDS011;36278;47.952;21.714;2023-01-16T10:48:10;23.80;;;16.20;;
43070;SDS011;36278;47.952;21.714;2023-01-16T10:50:56;21.00;;;15.50;;
43070;SDS011;36278;47.952;21.714;2023-01-16T10:53:22;18.80;;;14.07;;
43070;SDS011;36278;47.952;21.714;2023-01-16T10:55:48;23.90;;;16.43;;
43070;SDS011;36278;47.952;21.714;2023-01-16T10:58:33;23.93;;;14.97;;
43070;SDS011;36278;47.952;21.714;2023-01-16T11:01:23;20.40;;;14.17;;
43070;SDS011;36278;47.952;21.714;2023-01-16T11:03:50;21.83;;;14.70;;
43070;SDS011;36278;47.952;21.714;2023-01-16T11:06:19;25.33;;;17.43;;
43070;SDS011;36278;47.952;21.714;2023-01-16T11:09:32;19.20;;;14.37;;
43070;SDS011;36278;47.952;21.714;2023-01-16T11:11:38;24.30;;;17.40;;
43070;SDS011;36278;47.952;21.714;2023-01-16T11:20:12;22.77;;;17.57;;
43070;SDS011;36278;47.952;21.714;2023-01-16T11:25:37;19.03;;;14.43;;
43070;SDS011;36278;47.952;21.714;2023-01-16T11:28:04;19.13;;;14.63;;
43070;SDS011;36278;47.952;21.714;2023-01-16T11:30:38;22.50;;;15.37;;
43070;SDS011;36278;47.952;21.714;2023-01-16T11:33:14;20.33;;;14.57;;
43070;SDS011;36278;47.952;21.714;2023-01-16T11:35:44;21.33;;;14.97;;
43070;SDS011;36278;47.952;21.714;2023-01-16T11:38:16;20.77;;;14.97;;
43070;SDS011;36278;47.952;21.714;2023-01-16T11:40:43;21.40;;;15.53;;
43070;SDS011;36278;47.952;21.714;2023-01-16T11:43:13;22.67;;;15.07;;
43070;SDS011;36278;47.952;21.714;2023-01-16T11:46:04;23.43;;;15.57;;
43070;SDS011;36278;47.952;21.714;2023-01-16T11:48:40;18.87;;;14.40;;
43070;SDS011;36278;47.952;21.714;2023-01-16T11:51:13;19.48;;;14.60;;
43070;SDS011;36278;47.952;21.714;2023-01-16T11:53:42;21.30;;;15.80;;
43070;SDS011;36278;47.952;21.714;2023-01-16T11:59:18;22.60;;;15.77;;
43070;SDS011;36278;47.952;21.714;2023-01-16T12:04:53;22.60;;;15.93;;
43070;SDS011;36278;47.952;21.714;2023-01-16T12:07:51;20.63;;;15.37;;
43070;SDS011;36278;47.952;21.714;2023-01-16T12:10:32;19.73;;;14.67;;
43070;SDS011;36278;47.952;21.714;2023-01-16T12:13:07;21.50;;;15.23;;
43070;SDS011;36278;47.952;21.714;2023-01-16T12:24:58;24.10;;;16.97;;
43070;SDS011;36278;47.952;21.714;2023-01-16T12:27:56;27.30;;;18.93;;
43070;SDS011;36278;47.952;21.714;2023-01-16T12:42:45;21.40;;;14.83;;
43070;SDS011;36278;47.952;21.714;2023-01-16T12:50:53;19.37;;;15.03;;
43070;SDS011;36278;47.952;21.714;2023-01-16T12:55:58;20.87;;;15.00;;
43070;SDS011;36278;47.952;21.714;2023-01-16T12:58:29;22.20;;;14.97;;
43070;SDS011;36278;47.952;21.714;2023-01-16T13:03:42;24.50;;;17.10;;
43070;SDS011;36278;47.952;21.714;2023-01-16T13:06:16;24.10;;;15.97;;
43070;SDS011;36278;47.952;21.714;2023-01-16T13:08:52;23.45;;;15.13;;
43070;SDS011;36278;47.952;21.714;2023-01-16T13:11:32;23.27;;;15.77;;
43070;SDS011;36278;47.952;21.714;2023-01-16T13:14:19;22.57;;;15.67;;
43070;SDS011;36278;47.952;21.714;2023-01-16T13:19:29;20.93;;;15.70;;
43070;SDS011;36278;47.952;21.714;2023-01-16T13:22:02;23.63;;;16.53;;
43070;SDS011;36278;47.952;21.714;2023-01-16T13:24:54;18.93;;;15.33;;
43070;SDS011;36278;47.952;21.714;2023-01-16T13:27:42;22.53;;;16.07;;
43070;SDS011;36278;47.952;21.714;2023-01-16T13:30:13;24.77;;;16.63;;
43070;SDS011;36278;47.952;21.714;2023-01-16T13:32:45;24.37;;;16.63;;
43070;SDS011;36278;47.952;21.714;2023-01-16T13:35:20;26.43;;;17.77;;
43070;SDS011;36278;47.952;21.714;2023-01-16T13:41:13;26.00;;;18.83;;
43070;SDS011;36278;47.952;21.714;2023-01-16T13:43:48;27.03;;;18.20;;
43070;SDS011;36278;47.952;21.714;2023-01-16T13:46:53;25.43;;;17.17;;
43070;SDS011;36278;47.952;21.714;2023-01-16T13:49:20;24.33;;;15.13;;
43070;SDS011;36278;47.952;21.714;2023-01-16T13:51:50;22.63;;;15.33;;
43070;SDS011;36278;47.952;21.714;2023-01-16T13:54:41;23.80;;;15.50;;
43070;SDS011;36278;47.952;21.714;2023-01-16T13:59:42;21.97;;;14.77;;
43070;SDS011;36278;47.952;21.714;2023-01-16T14:02:22;21.63;;;15.07;;
43070;SDS011;36278;47.952;21.714;2023-01-16T14:08:13;24.07;;;15.17;;
43070;SDS011;36278;47.952;21.714;2023-01-16T14:13:24;19.87;;;14.20;;
43070;SDS011;36278;47.952;21.714;2023-01-16T14:16:00;18.87;;;14.17;;
43070;SDS011;36278;47.952;21.714;2023-01-16T14:23:54;20.77;;;14.80;;
43070;SDS011;36278;47.952;21.714;2023-01-16T14:28:58;22.67;;;15.03;;
43070;SDS011;36278;47.952;21.714;2023-01-16T14:31:29;22.40;;;15.40;;
43070;SDS011;36278;47.952;21.714;2023-01-16T14:34:04;22.97;;;15.63;;
43070;SDS011;36278;47.952;21.714;2023-01-16T14:36:31;22.60;;;15.13;;
43070;SDS011;36278;47.952;21.714;2023-01-16T14:38:58;23.77;;;16.13;;
43070;SDS011;36278;47.952;21.714;2023-01-16T14:41:29;30.27;;;21.43;;
43070;SDS011;36278;47.952;21.714;2023-01-16T14:44:19;21.90;;;15.50;;
43070;SDS011;36278;47.952;21.714;2023-01-16T14:47:06;23.57;;;16.27;;
43070;SDS011;36278;47.952;21.714;2023-01-16T14:49:58;26.20;;;17.90;;
43070;SDS011;36278;47.952;21.714;2023-01-16T14:52:48;24.13;;;15.90;;
43070;SDS011;36278;47.952;21.714;2023-01-16T14:58:05;24.60;;;16.70;;
43070;SDS011;36278;47.952;21.714;2023-01-16T15:00:34;19.93;;;15.13;;
43070;SDS011;36278;47.952;21.714;2023-01-16T15:03:26;34.47;;;17.83;;
43070;SDS011;36278;47.952;21.714;2023-01-16T15:05:52;118.07;;;57.70;;
43070;SDS011;36278;47.952;21.714;2023-01-16T15:08:32;43.00;;;26.77;;
43070;SDS011;36278;47.952;21.714;2023-01-16T15:11:08;25.27;;;17.17;;
43070;SDS011;36278;47.952;21.714;2023-01-16T15:14:12;21.73;;;15.43;;
43070;SDS011;36278;47.952;21.714;2023-01-16T15:19:38;25.13;;;16.60;;
43070;SDS011;36278;47.952;21.714;2023-01-16T15:22:42;24.53;;;16.57;;
43070;SDS011;36278;47.952;21.714;2023-01-16T15:28:46;26.07;;;16.93;;
43070;SDS011;36278;47.952;21.714;2023-01-16T15:30:57;24.23;;;15.70;;
43070;SDS011;36278;47.952;21.714;2023-01-16T15:33:32;25.27;;;14.83;;
43070;SDS011;36278;47.952;21.714;2023-01-16T15:36:17;25.37;;;16.73;;
43070;SDS011;36278;47.952;21.714;2023-01-16T15:39:18;20.80;;;15.97;;
43070;SDS011;36278;47.952;21.714;2023-01-16T15:44:46;30.30;;;18.93;;
43070;SDS011;36278;47.952;21.714;2023-01-16T15:52:53;25.77;;;18.13;;
43070;SDS011;36278;47.952;21.714;2023-01-16T15:55:23;30.73;;;21.30;;
43070;SDS011;36278;47.952;21.714;2023-01-16T15:57:53;49.28;;;34.95;;
43070;SDS011;36278;47.952;21.714;2023-01-16T16:00:39;30.37;;;21.10;;
43070;SDS011;36278;47.952;21.714;2023-01-16T16:03:18;41.10;;;32.10;;
43070;SDS011;36278;47.952;21.714;2023-01-16T16:05:50;33.73;;;25.30;;
43070;SDS011;36278;47.952;21.714;2023-01-16T16:08:24;34.37;;;26.70;;
43070;SDS011;36278;47.952;21.714;2023-01-16T16:10:52;29.80;;;23.67;;
43070;SDS011;36278;47.952;21.714;2023-01-16T16:13:38;37.17;;;24.87;;
43070;SDS011;36278;47.952;21.714;2023-01-16T16:16:15;37.57;;;24.77;;
43070;SDS011;36278;47.952;21.714;2023-01-16T16:19:02;34.00;;;24.17;;
43070;SDS011;36278;47.952;21.714;2023-01-16T16:21:32;33.90;;;24.30;;
43070;SDS011;36278;47.952;21.714;2023-01-16T16:24:05;34.90;;;22.83;;
43070;SDS011;36278;47.952;21.714;2023-01-16T16:26:40;33.67;;;23.47;;
43070;SDS011;36278;47.952;21.714;2023-01-16T16:29:17;33.77;;;22.43;;
43070;SDS011;36278;47.952;21.714;2023-01-16T16:31:45;31.23;;;20.67;;
43070;SDS011;36278;47.952;21.714;2023-01-16T16:34:18;31.90;;;22.13;;
43070;SDS011;36278;47.952;21.714;2023-01-16T16:36:48;26.53;;;19.63;;
43070;SDS011;36278;47.952;21.714;2023-01-16T16:39:27;30.07;;;20.00;;
43070;SDS011;36278;47.952;21.714;2023-01-16T16:42:00;27.40;;;20.53;;
43070;SDS011;36278;47.952;21.714;2023-01-16T16:47:40;28.90;;;19.90;;
43070;SDS011;36278;47.952;21.714;2023-01-16T16:53:04;28.10;;;20.30;;
43070;SDS011;36278;47.952;21.714;2023-01-16T16:55:36;32.20;;;21.40;;
43070;SDS011;36278;47.952;21.714;2023-01-16T16:58:04;29.33;;;21.70;;
43070;SDS011;36278;47.952;21.714;2023-01-16T17:00:37;33.53;;;23.80;;
43070;SDS011;36278;47.952;21.714;2023-01-16T17:05:43;29.83;;;22.43;;
43070;SDS011;36278;47.952;21.714;2023-01-16T17:08:13;33.33;;;25.30;;
43070;SDS011;36278;47.952;21.714;2023-01-16T17:10:41;40.10;;;28.57;;
43070;SDS011;36278;47.952;21.714;2023-01-16T17:13:08;36.83;;;28.47;;
43070;SDS011;36278;47.952;21.714;2023-01-16T17:15:36;43.90;;;30.60;;
43070;SDS011;36278;47.952;21.714;2023-01-16T17:18:02;38.93;;;27.63;;
43070;SDS011;36278;47.952;21.714;2023-01-16T17:20:30;48.30;;;29.07;;
43070;SDS011;36278;47.952;21.714;2023-01-16T17:22:57;44.90;;;29.93;;
43070;SDS011;36278;47.952;21.714;2023-01-16T17:25:23;44.10;;;31.73;;
43070;SDS011;36278;47.952;21.714;2023-01-16T17:27:50;41.77;;;29.23;;
43070;SDS011;36278;47.952;21.714;2023-01-16T17:30:17;42.03;;;30.43;;